createdAt,value
2023-04-01T00:02:41.821Z,10.10
2023-04-01T00:07:44.591Z,10.20
2023-04-01T00:12:46.775Z,10.10
2023-04-01T00:17:49.432Z,10.20
2023-04-01T00:22:51.721Z,10.20
2023-04-01T00:27:54.032Z,10.10
2023-04-01T00:32:56.378Z,10.10
2023-04-01T00:37:58.659Z,10.10
2023-04-01T00:43:01.710Z,10.00
2023-04-01T00:48:10.072Z,10.10
2023-04-01T00:53:13.179Z,10.10
2023-04-01T00:58:19.238Z,10.20
2023-04-01T01:03:21.634Z,10.20
2023-04-01T01:08:51.971Z,10.10
2023-04-01T01:13:54.092Z,10.20
2023-04-01T01:19:21.340Z,10.20
2023-04-01T01:24:32.555Z,10.30
2023-04-01T01:29:45.086Z,10.30
2023-04-01T01:35:02.392Z,10.20
2023-04-01T01:40:08.366Z,10.20
2023-04-01T01:45:14.252Z,10.10
2023-04-01T01:50:18.092Z,10.10
2023-04-01T01:55:32.218Z,10.10
2023-04-01T02:00:36.578Z,10.10
2023-04-01T02:05:39.089Z,10.10
2023-04-01T02:10:52.982Z,10.10
2023-04-01T02:16:01.428Z,10.20
2023-04-01T02:21:06.189Z,10.20
2023-04-01T02:26:11.415Z,10.20
2023-04-01T02:31:15.768Z,10.20
2023-04-01T02:36:18.840Z,10.20
2023-04-01T02:41:22.064Z,10.20
2023-04-01T02:46:24.419Z,10.20
2023-04-01T02:51:27.574Z,10.10
2023-04-01T02:56:29.751Z,10.10
2023-04-01T03:01:32.250Z,10.00
2023-04-01T03:06:34.601Z,10.00
2023-04-01T03:11:36.822Z,10.10
2023-04-01T03:16:39.299Z,10.10
2023-04-01T03:21:42.459Z,10.10
2023-04-01T03:26:44.645Z,10.20
2023-04-01T03:31:47.243Z,10.20
2023-04-01T03:36:49.444Z,10.10
2023-04-01T03:41:51.784Z,10.10
2023-04-01T03:46:54.012Z,10.00
2023-04-01T03:51:56.425Z,9.90
2023-04-01T03:56:59.337Z,9.90
2023-04-01T04:02:02.301Z,10.00
2023-04-01T04:07:05.006Z,10.10
2023-04-01T04:12:25.902Z,10.00
2023-04-01T04:17:28.496Z,10.10
2023-04-01T04:22:33.715Z,10.10
2023-04-01T04:27:37.117Z,10.10
2023-04-01T04:32:44.229Z,10.10
2023-04-01T04:37:47.897Z,10.20
2023-04-01T04:42:50.978Z,10.10
2023-04-01T04:47:53.240Z,10.20
2023-04-01T04:52:55.596Z,10.00
2023-04-01T04:57:58.083Z,9.90
2023-04-01T05:03:00.994Z,10.00
2023-04-01T05:08:03.435Z,10.00
2023-04-01T05:13:06.060Z,10.10
2023-04-01T05:18:08.596Z,10.10
2023-04-01T05:23:11.044Z,10.10
2023-04-01T05:28:13.582Z,10.10
2023-04-01T05:33:18.499Z,10.10
2023-04-01T05:38:21.040Z,10.10
2023-04-01T05:43:23.271Z,10.20
2023-04-01T05:48:26.692Z,10.20
2023-04-01T05:53:29.972Z,10.20
2023-04-01T05:58:32.473Z,10.30
2023-04-01T06:03:35.084Z,10.30
2023-04-01T06:08:37.420Z,10.40
2023-04-01T06:13:48.836Z,10.50
2023-04-01T06:19:12.220Z,10.50
2023-04-01T06:24:17.216Z,10.50
2023-04-01T06:29:22.384Z,10.60
2023-04-01T06:34:52.436Z,10.70
2023-04-01T06:40:07.583Z,10.80
2023-04-01T06:45:36.926Z,10.90
2023-04-01T06:51:15.108Z,11.00
2023-04-01T06:56:43.881Z,11.10
2023-04-01T07:01:58.410Z,11.10
2023-04-01T07:07:21.230Z,11.30
2023-04-01T07:12:37.002Z,11.30
2023-04-01T07:17:57.738Z,11.30
2023-04-01T07:23:07.018Z,11.20
2023-04-01T07:28:35.338Z,11.20
2023-04-01T07:34:14.777Z,11.30
2023-04-01T07:39:20.317Z,11.30
2023-04-01T07:44:48.521Z,11.30
2023-04-01T07:49:53.511Z,11.00
2023-04-01T07:55:08.152Z,11.40
2023-04-01T08:00:25.749Z,11.90
2023-04-01T08:05:54.582Z,12.10
2023-04-01T08:11:18.586Z,12.00
2023-04-01T08:16:46.847Z,12.10
2023-04-01T08:21:59.423Z,12.30
2023-04-01T08:27:13.903Z,12.40
2023-04-01T08:32:18.568Z,12.50
2023-04-01T08:37:29.875Z,12.30
2023-04-01T08:42:42.667Z,12.60
2023-04-01T08:48:20.668Z,12.80
2023-04-01T08:53:52.889Z,12.90
2023-04-01T08:59:09.269Z,13.10
2023-04-01T09:04:23.004Z,13.90
2023-04-01T09:10:08.232Z,14.60
2023-04-01T09:15:38.187Z,14.00
2023-04-01T09:20:52.832Z,13.80
2023-04-01T09:26:09.336Z,13.90
2023-04-01T09:31:24.120Z,13.80
2023-04-01T09:37:22.777Z,13.50
2023-04-01T09:42:55.967Z,13.60
2023-04-01T09:48:31.002Z,13.80
2023-04-01T09:54:01.118Z,14.70
2023-04-01T09:59:24.566Z,14.50
2023-04-01T10:05:07.781Z,14.20
2023-04-01T10:10:29.269Z,13.30
2023-04-01T10:15:44.039Z,12.50
2023-04-01T10:21:13.726Z,11.80
2023-04-01T10:26:31.139Z,11.70
2023-04-01T10:32:44.951Z,11.50
2023-04-01T10:38:04.172Z,11.30
2023-04-01T10:43:41.349Z,11.20
2023-04-01T10:49:11.972Z,11.20
2023-04-01T10:54:35.832Z,11.20
2023-04-01T11:00:31.004Z,11.20
2023-04-01T11:06:06.714Z,11.20
2023-04-01T11:11:37.106Z,11.10
2023-04-01T11:16:49.685Z,11.30
2023-04-01T11:21:51.933Z,11.40
2023-04-01T11:27:20.056Z,11.30
2023-04-01T11:33:02.071Z,11.10
2023-04-01T11:38:21.430Z,10.90
2023-04-01T11:43:42.093Z,10.60
2023-04-01T11:50:00.674Z,10.30
2023-04-01T11:55:27.612Z,10.40
2023-04-01T12:00:57.374Z,10.30
2023-04-01T12:06:11.430Z,10.20
2023-04-01T12:11:38.577Z,10.10
2023-04-01T12:17:03.491Z,10.00
2023-04-01T12:22:33.729Z,9.90
2023-04-01T12:27:55.075Z,9.80
2023-04-01T12:33:22.241Z,9.70
2023-04-01T12:38:59.198Z,9.70
2023-04-01T12:44:16.536Z,9.70
2023-04-01T12:49:40.412Z,9.70
2023-04-01T12:55:04.448Z,9.70
2023-04-01T13:00:45.725Z,9.60
2023-04-01T13:06:09.589Z,9.70
2023-04-01T13:11:49.397Z,9.60
2023-04-01T13:17:16.385Z,9.60
2023-04-01T13:22:44.999Z,9.60
2023-04-01T13:27:55.704Z,9.50
2023-04-01T13:33:17.611Z,9.50
2023-04-01T13:38:38.588Z,9.60
2023-04-01T13:43:49.272Z,9.60
2023-04-01T13:49:06.839Z,9.60
2023-04-01T13:54:27.159Z,9.70
2023-04-01T13:59:47.471Z,9.60
2023-04-01T14:05:14.403Z,9.60
2023-04-01T14:10:49.880Z,9.50
2023-04-01T14:16:06.931Z,9.40
2023-04-01T14:21:23.789Z,9.30
2023-04-01T14:26:50.309Z,9.30
2023-04-01T14:31:58.556Z,9.30
2023-04-01T14:37:14.296Z,9.10
2023-04-01T14:42:28.557Z,9.20
2023-04-01T14:47:48.726Z,9.10
2023-04-01T14:52:58.968Z,9.00
2023-04-01T14:58:14.019Z,9.00
2023-04-01T15:03:28.122Z,8.90
2023-04-01T15:08:39.340Z,8.90
2023-04-01T15:14:02.620Z,8.80
2023-04-01T15:19:16.754Z,8.70
2023-04-01T15:24:31.470Z,8.50
2023-04-01T15:29:48.661Z,8.40
2023-04-01T15:35:09.661Z,8.30
2023-04-01T15:40:46.330Z,8.20
2023-04-01T15:46:09.836Z,8.20
2023-04-01T15:51:23.314Z,8.10
2023-04-01T15:56:29.447Z,8.10
2023-04-01T16:01:57.596Z,7.90
2023-04-01T16:07:22.843Z,7.80
2023-04-01T16:12:46.504Z,7.70
2023-04-01T16:18:03.758Z,7.70
2023-04-01T16:23:26.349Z,7.60
2023-04-01T16:28:41.427Z,7.50
2023-04-01T16:33:59.212Z,7.50
2023-04-01T16:39:23.194Z,7.40
2023-04-01T16:44:28.514Z,7.40
2023-04-01T16:49:38.723Z,7.40
2023-04-01T16:55:02.809Z,7.30
2023-04-01T17:00:20.324Z,7.30
2023-04-01T17:05:43.669Z,7.30
2023-04-01T17:10:51.718Z,7.30
2023-04-01T17:16:12.367Z,7.30
2023-04-01T17:21:32.477Z,7.10
2023-04-01T17:26:48.678Z,7.10
2023-04-01T17:32:19.814Z,7.10
2023-04-01T17:37:49.125Z,7.00
2023-04-01T17:43:00.105Z,7.00
2023-04-01T17:48:30.453Z,6.90
2023-04-01T17:53:36.805Z,6.80
2023-04-01T17:59:22.985Z,6.80
2023-04-01T18:04:31.350Z,6.80
2023-04-01T18:10:06.043Z,6.80
2023-04-01T18:15:32.727Z,6.80
2023-04-01T18:20:53.393Z,6.70
2023-04-01T18:26:06.100Z,6.70
2023-04-01T18:31:19.276Z,6.60
2023-04-01T18:36:43.352Z,6.60
2023-04-01T18:42:13.482Z,6.60
2023-04-01T18:47:34.263Z,6.50
2023-04-01T18:52:44.600Z,6.50
2023-04-01T18:58:00.005Z,6.50
2023-04-01T19:03:15.968Z,6.50
2023-04-01T19:08:30.588Z,6.40
2023-04-01T19:13:54.189Z,6.30
2023-04-01T19:19:03.330Z,6.30
2023-04-01T19:24:18.691Z,6.30
2023-04-01T19:29:55.052Z,6.20
2023-04-01T19:35:31.597Z,6.20
2023-04-01T19:40:37.076Z,6.10
2023-04-01T19:45:58.377Z,6.00
2023-04-01T19:51:12.399Z,6.00
2023-04-01T19:56:23.629Z,5.90
2023-04-01T20:01:44.953Z,5.90
2023-04-01T20:07:17.471Z,5.80
2023-04-01T20:12:56.659Z,5.80
2023-04-01T20:18:01.345Z,5.70
2023-04-01T20:23:09.032Z,5.80
2023-04-01T20:28:20.617Z,5.80
2023-04-01T20:33:50.163Z,5.80
2023-04-01T20:39:27.318Z,5.80
2023-04-01T20:44:50.572Z,5.70
2023-04-01T20:50:31.890Z,5.70
2023-04-01T20:55:54.456Z,5.60
2023-04-01T21:01:24.293Z,5.70
2023-04-01T21:06:47.422Z,5.60
2023-04-01T21:12:13.863Z,5.60
2023-04-01T21:17:34.483Z,5.70
2023-04-01T21:22:48.248Z,5.60
2023-04-01T21:28:11.956Z,5.50
2023-04-01T21:33:14.133Z,5.40
2023-04-01T21:38:25.277Z,5.30
2023-04-01T21:43:58.470Z,5.30
2023-04-01T21:49:38.423Z,5.20
2023-04-01T21:55:07.675Z,5.20
2023-04-01T22:00:20.016Z,5.10
2023-04-01T22:05:45.154Z,5.10
2023-04-01T22:11:09.109Z,5.00
2023-04-01T22:16:30.112Z,4.90
2023-04-01T22:22:02.551Z,4.80
2023-04-01T22:27:09.119Z,4.60
2023-04-01T22:32:18.844Z,4.50
2023-04-01T22:37:52.536Z,4.30
2023-04-01T22:42:59.046Z,4.10
2023-04-01T22:48:39.636Z,4.10
2023-04-01T22:54:00.023Z,4.00
2023-04-01T22:59:30.871Z,3.90
2023-04-01T23:04:38.861Z,3.90
2023-04-01T23:09:41.407Z,3.80
2023-04-01T23:14:54.449Z,3.70
2023-04-01T23:20:18.059Z,3.50
2023-04-01T23:25:26.329Z,3.40
2023-04-01T23:30:40.724Z,3.40
2023-04-01T23:35:57.050Z,3.30
2023-04-01T23:40:59.498Z,3.20
2023-04-01T23:46:05.008Z,3.10
2023-04-01T23:51:30.312Z,3.10
2023-04-01T23:56:54.987Z,3.00
